Time;durP1;ratioP1;P1;durP2;ratioP2;P2;SDS_P1;SDS_P2;PMS_P1;PMS_P2;Temp;Humidity;BMP_temperature;BMP_pressure;BME280_temperature;BME280_humidity;BME280_pressure;Samples;Min_cycle;Max_cycle;Signal;HPM_P1;HPM_P2
2022/09/26 00:01:08;;;;;;;4.80;2.00;;;8.40;99.90;;;;;;7399999;32;20236;-60
2022/09/26 00:05:10;;;;;;;1.90;1.30;;;8.40;99.90;;;;;;7393576;32;20233;-60
2022/09/26 00:09:13;;;;;;;3.50;1.37;;;8.40;99.90;;;;;;7396586;32;20177;-60
2022/09/26 00:13:15;;;;;;;3.03;1.60;;;8.30;99.90;;;;;;7401580;32;20301;-60
2022/09/26 00:17:16;;;;;;;4.80;1.55;;;8.30;99.90;;;;;;7401717;32;20114;-60
2022/09/26 00:21:19;;;;;;;6.82;1.95;;;8.30;99.90;;;;;;7394754;32;20114;-60
2022/09/26 00:25:20;;;;;;;6.15;2.00;;;8.30;99.90;;;;;;7401699;32;20110;-60
2022/09/26 00:29:22;;;;;;;4.65;2.10;;;8.40;99.90;;;;;;7401417;32;20114;-60
2022/09/26 00:33:24;;;;;;;3.55;2.10;;;8.40;99.90;;;;;;7395863;32;20644;-60
2022/09/26 00:37:26;;;;;;;8.23;2.78;;;8.50;99.90;;;;;;7397948;32;20115;-60
2022/09/26 00:41:28;;;;;;;5.72;3.03;;;8.50;99.90;;;;;;7398873;32;20110;-61
2022/09/26 00:45:30;;;;;;;8.38;3.37;;;8.70;99.90;;;;;;7392801;32;20708;-60
2022/09/26 00:49:40;;;;;;;6.97;3.15;;;8.80;99.90;;;;;;7400598;32;20137;-62
2022/09/26 00:53:45;;;;;;;7.95;3.28;;;9.00;99.90;;;;;;7392374;32;20137;-63
2022/09/26 00:57:55;;;;;;;8.93;3.85;;;9.10;99.90;;;;;;7396182;32;20129;-61
2022/09/26 01:01:58;;;;;;;6.37;3.67;;;9.20;99.90;;;;;;7396303;32;20106;-60
2022/09/26 01:06:00;;;;;;;7.47;3.22;;;9.20;99.90;;;;;;7394842;32;20143;-61
2022/09/26 01:10:04;;;;;;;5.45;3.60;;;9.30;99.90;;;;;;7390663;32;20102;-61
2022/09/26 01:14:08;;;;;;;6.35;3.53;;;9.40;99.90;;;;;;7397226;32;20163;-59
2022/09/26 01:18:10;;;;;;;7.82;3.47;;;9.50;99.90;;;;;;7407286;32;20132;-61
2022/09/26 01:22:48;;;;;;;6.93;3.65;;;9.50;99.90;;;;;;7403556;31;20133;-60
2022/09/26 01:27:12;;;;;;;7.47;3.50;;;9.50;99.90;;;;;;7398321;32;20117;-60
2022/09/26 01:31:24;;;;;;;5.40;3.53;;;9.60;99.90;;;;;;7387877;32;20254;-60
2022/09/26 01:36:04;;;;;;;7.25;3.85;;;9.60;99.90;;;;;;7393957;31;20110;-59
2022/09/26 01:40:33;;;;;;;10.38;4.53;;;9.80;99.90;;;;;;7396539;32;20189;-59
2022/09/26 01:44:59;;;;;;;8.60;4.18;;;9.80;99.90;;;;;;7360388;32;20622;-61
2022/09/26 01:49:22;;;;;;;6.75;4.78;;;9.90;99.90;;;;;;7393598;32;20466;-60
2022/09/26 01:53:39;;;;;;;11.55;4.95;;;9.90;99.90;;;;;;7387639;32;20645;-60
2022/09/26 01:58:06;;;;;;;8.50;4.97;;;10.00;99.90;;;;;;7390282;32;20237;-60
2022/09/26 02:02:17;;;;;;;11.93;5.50;;;10.00;99.90;;;;;;7391903;32;20489;-60
2022/09/26 02:06:26;;;;;;;7.75;4.70;;;10.00;99.90;;;;;;7399830;32;20136;-60
2022/09/26 02:10:48;;;;;;;11.50;4.93;;;10.00;99.90;;;;;;7387979;32;20177;-61
2022/09/26 02:14:54;;;;;;;9.13;5.20;;;10.20;99.90;;;;;;7398986;32;20111;-60
2022/09/26 02:19:05;;;;;;;8.43;4.93;;;10.30;99.90;;;;;;7387686;32;20145;-60
2022/09/26 02:23:07;;;;;;;9.55;5.32;;;10.20;99.90;;;;;;7390139;32;20148;-60
2022/09/26 02:27:09;;;;;;;11.35;5.50;;;10.50;99.90;;;;;;7399424;32;20196;-61
2022/09/26 02:31:15;;;;;;;10.85;5.68;;;10.50;99.90;;;;;;7392591;32;20519;-61
2022/09/26 02:39:38;;;;;;;12.60;6.87;;;10.40;99.90;;;;;;7390684;32;20137;-61
2022/09/26 02:43:53;;;;;;;12.65;6.30;;;10.50;99.90;;;;;;7398190;32;20829;-60
2022/09/26 02:47:58;;;;;;;12.27;6.40;;;10.60;99.90;;;;;;7389959;31;20098;-60
2022/09/26 02:52:49;;;;;;;10.02;6.15;;;10.50;99.90;;;;;;7392391;32;20467;-60
2022/09/26 02:56:54;;;;;;;11.15;5.90;;;10.50;99.90;;;;;;7380247;32;21128;-61
2022/09/26 03:01:17;;;;;;;12.95;5.82;;;10.60;99.90;;;;;;7398316;32;20467;-60
2022/09/26 03:05:29;;;;;;;9.43;6.28;;;10.70;99.90;;;;;;7394010;32;20106;-60
2022/09/26 03:09:33;;;;;;;11.20;6.90;;;10.60;99.90;;;;;;7399588;32;20151;-60
2022/09/26 03:13:36;;;;;;;11.73;6.70;;;10.70;99.90;;;;;;7390584;32;20212;-60
2022/09/26 03:17:42;;;;;;;12.50;5.93;;;10.80;99.90;;;;;;7391444;32;20133;-60
2022/09/26 03:21:44;;;;;;;11.10;6.63;;;10.70;99.90;;;;;;7394588;32;20891;-60
2022/09/26 03:25:58;;;;;;;11.27;6.68;;;10.70;99.90;;;;;;7397246;32;20620;-59
2022/09/26 03:30:00;;;;;;;13.18;6.75;;;10.70;99.90;;;;;;7387206;31;20098;-60
2022/09/26 03:34:01;;;;;;;10.18;7.25;;;10.70;99.90;;;;;;7393259;32;20736;-63
2022/09/26 03:38:03;;;;;;;13.35;8.00;;;10.80;99.90;;;;;;7395373;32;20138;-60
2022/09/26 03:42:15;;;;;;;13.85;8.70;;;10.80;99.90;;;;;;7397743;32;20189;-60
2022/09/26 03:46:17;;;;;;;12.85;7.07;;;10.80;99.90;;;;;;7390951;32;20115;-60
2022/09/26 03:50:19;;;;;;;13.27;7.45;;;10.80;99.90;;;;;;7393474;32;20535;-61
2022/09/26 03:54:20;;;;;;;14.20;8.07;;;10.80;99.90;;;;;;7398292;32;20102;-61
2022/09/26 03:58:22;;;;;;;11.65;7.47;;;10.80;99.90;;;;;;7397569;32;20529;-60
2022/09/26 04:02:23;;;;;;;11.48;7.25;;;10.90;99.90;;;;;;7388916;32;20103;-60
2022/09/26 04:06:25;;;;;;;11.57;7.20;;;10.90;99.90;;;;;;7402946;32;20831;-60
2022/09/26 04:10:27;;;;;;;12.52;7.35;;;10.80;99.90;;;;;;7387942;32;20153;-59
2022/09/26 04:14:30;;;;;;;11.23;7.00;;;10.80;99.90;;;;;;7396647;32;20111;-63
2022/09/26 04:18:32;;;;;;;11.40;7.18;;;10.80;99.90;;;;;;7388250;32;20531;-60
2022/09/26 04:22:34;;;;;;;12.85;7.03;;;10.80;99.90;;;;;;7398591;32;20114;-61
2022/09/26 04:26:38;;;;;;;11.50;7.35;;;10.80;99.90;;;;;;7392200;32;20528;-60
2022/09/26 04:30:40;;;;;;;12.43;6.68;;;10.70;99.90;;;;;;7391317;32;20122;-60
2022/09/26 04:34:41;;;;;;;12.73;7.35;;;10.70;99.90;;;;;;7392449;32;20346;-62
2022/09/26 04:38:43;;;;;;;12.07;7.05;;;10.80;99.90;;;;;;7393563;32;20114;-60
2022/09/26 04:42:44;;;;;;;16.40;7.32;;;10.80;99.90;;;;;;7398375;32;20541;-60
2022/09/26 04:46:47;;;;;;;12.55;7.55;;;10.90;99.90;;;;;;7399195;32;20099;-60
2022/09/26 04:50:48;;;;;;;9.27;7.03;;;10.80;99.90;;;;;;7394295;32;20107;-60
2022/09/26 04:54:50;;;;;;;11.10;7.47;;;10.80;99.90;;;;;;7378958;32;20129;-60
2022/09/26 04:58:55;;;;;;;14.75;7.75;;;10.90;99.90;;;;;;7395323;32;20144;-60
2022/09/26 05:02:58;;;;;;;12.70;8.23;;;10.70;99.90;;;;;;7390382;32;20539;-60
2022/09/26 05:07:00;;;;;;;12.80;7.87;;;10.70;99.90;;;;;;7403624;32;20110;-60
2022/09/26 05:11:02;;;;;;;11.23;6.90;;;10.80;99.90;;;;;;7384576;32;20114;-61
2022/09/26 05:15:07;;;;;;;12.82;7.05;;;10.90;99.90;;;;;;7391343;32;20245;-60
2022/09/26 05:19:09;;;;;;;8.70;6.97;;;10.60;99.90;;;;;;7388483;32;20107;-60
2022/09/26 05:23:11;;;;;;;12.68;6.93;;;10.60;99.90;;;;;;7384501;32;20165;-60
2022/09/26 05:27:14;;;;;;;8.20;6.85;;;10.60;99.90;;;;;;7391091;32;20118;-64
2022/09/26 05:31:16;;;;;;;9.88;6.32;;;10.60;99.90;;;;;;7390953;32;20235;-63
2022/09/26 05:35:18;;;;;;;10.27;6.45;;;10.70;99.90;;;;;;7399963;31;20141;-62
2022/09/26 05:43:43;;;;;;;10.70;6.25;;;10.70;99.90;;;;;;7387328;32;20185;-65
2022/09/26 05:47:47;;;;;;;10.23;5.65;;;10.70;99.90;;;;;;7388061;32;20125;-64
2022/09/26 05:51:49;;;;;;;9.35;5.12;;;10.80;99.90;;;;;;7385611;32;20139;-64
2022/09/26 05:55:51;;;;;;;9.68;5.45;;;10.80;99.90;;;;;;7380822;32;20190;-64
2022/09/26 05:59:52;;;;;;;14.18;5.43;;;10.90;99.90;;;;;;7381654;32;20117;-64
2022/09/26 06:03:54;;;;;;;14.48;4.93;;;11.00;99.90;;;;;;7392537;32;20174;-66
2022/09/26 06:08:10;;;;;;;9.73;4.62;;;11.00;99.90;;;;;;7385884;32;20122;-61
2022/09/26 06:12:12;;;;;;;7.62;4.37;;;11.00;99.90;;;;;;7389892;32;20182;-63
2022/09/26 06:16:19;;;;;;;9.70;4.87;;;11.00;99.90;;;;;;7385048;32;20137;-63
2022/09/26 06:20:24;;;;;;;;;;;11.00;99.90;;;;;;7389091;32;20253;-62
2022/09/26 06:24:26;;;;;;;9.18;4.45;;;11.00;99.90;;;;;;7390024;32;20025;-62
2022/09/26 06:28:27;;;;;;;7.82;4.50;;;11.00;99.90;;;;;;7384427;32;20623;-62
2022/09/26 06:32:29;;;;;;;11.38;5.00;;;11.10;99.90;;;;;;7393040;32;20597;-63
2022/09/26 06:36:32;;;;;;;14.27;4.57;;;11.10;99.90;;;;;;7387060;32;20115;-63
2022/09/26 06:40:34;;;;;;;9.80;4.18;;;11.20;99.90;;;;;;7387944;32;20590;-62
2022/09/26 06:44:35;;;;;;;10.68;4.25;;;11.30;99.90;;;;;;7394847;32;20686;-62
2022/09/26 06:48:37;;;;;;;6.93;3.20;;;11.30;99.90;;;;;;7384292;32;20182;-63
2022/09/26 06:52:39;;;;;;;7.07;3.53;;;11.30;99.90;;;;;;7382303;32;20142;-63
2022/09/26 06:56:40;;;;;;;7.07;3.50;;;11.40;99.90;;;;;;7379391;32;20110;-64
2022/09/26 07:00:42;;;;;;;9.50;3.50;;;11.50;99.90;;;;;;7384273;32;20804;-65
2022/09/26 07:04:45;;;;;;;8.75;3.62;;;11.50;99.90;;;;;;7385243;32;20741;-63
2022/09/26 07:08:46;;;;;;;6.07;2.90;;;11.50;99.90;;;;;;7373966;32;20218;-64
2022/09/26 07:13:15;;;;;;;10.68;3.22;;;11.50;99.90;;;;;;7385867;32;20187;-63
2022/09/26 07:17:17;;;;;;;13.13;2.70;;;11.60;99.90;;;;;;7383239;32;20174;-64
2022/09/26 07:21:19;;;;;;;7.50;3.15;;;11.60;99.90;;;;;;7389220;32;20213;-65
2022/09/26 07:25:20;;;;;;;8.57;3.25;;;11.60;99.90;;;;;;7384330;32;20160;-64
2022/09/26 07:29:22;;;;;;;4.95;2.78;;;11.60;99.90;;;;;;7383333;32;20186;-64
2022/09/26 07:33:24;;;;;;;4.55;3.08;;;11.60;99.90;;;;;;7388230;32;20186;-64
2022/09/26 07:37:25;;;;;;;11.40;3.40;;;11.60;99.90;;;;;;7379794;32;20190;-65
2022/09/26 07:41:29;;;;;;;6.78;2.72;;;11.60;99.90;;;;;;7382499;32;20194;-63
2022/09/26 07:50:12;;;;;;;8.80;3.00;;;11.60;99.90;;;;;;7385394;32;20189;-62
2022/09/26 07:54:13;;;;;;;11.12;2.72;;;11.60;99.90;;;;;;7378849;32;20449;-62
2022/09/26 07:58:15;;;;;;;5.50;2.80;;;11.60;99.90;;;;;;7386781;32;20211;-64
2022/09/26 08:02:24;;;;;;;9.75;2.50;;;11.50;99.90;;;;;;7388035;32;21200;-63
2022/09/26 08:06:31;;;;;;;5.07;2.50;;;11.50;99.90;;;;;;7383244;32;20193;-64
2022/09/26 08:10:34;;;;;;;7.87;3.10;;;11.50;99.90;;;;;;7384218;32;20225;-63
2022/09/26 08:14:36;;;;;;;6.35;2.62;;;11.50;99.90;;;;;;7389853;32;20319;-67
2022/09/26 08:18:37;;;;;;;10.63;2.62;;;11.40;99.90;;;;;;7393253;32;20325;-64
2022/09/26 08:22:39;;;;;;;5.32;2.60;;;11.40;99.90;;;;;;7387165;32;20204;-65
2022/09/26 08:26:41;;;;;;;7.53;2.70;;;11.30;99.90;;;;;;7385827;32;21538;-63
2022/09/26 08:30:45;;;;;;;6.15;3.12;;;11.30;99.90;;;;;;7386956;31;20118;-64
2022/09/26 08:34:48;;;;;;;6.00;2.85;;;11.20;99.90;;;;;;7391698;32;20185;-63
2022/09/26 08:38:49;;;;;;;10.82;2.95;;;11.20;99.90;;;;;;7390590;31;20558;-63
2022/09/26 08:43:03;;;;;;;5.70;2.80;;;11.10;99.90;;;;;;7396164;32;20262;-65
2022/09/26 08:47:28;;;;;;;6.70;2.80;;;11.10;99.90;;;;;;7391777;31;20240;-63
2022/09/26 08:51:41;;;;;;;5.45;2.62;;;11.00;99.90;;;;;;7395565;32;20110;-63
2022/09/26 08:55:46;;;;;;;5.82;2.33;;;11.00;99.90;;;;;;7394534;32;20185;-63
2022/09/26 08:59:48;;;;;;;7.05;2.83;;;10.90;99.90;;;;;;7388354;32;20235;-63
2022/09/26 09:04:18;;;;;;;8.48;2.85;;;10.90;99.90;;;;;;7387075;32;20806;-65
2022/09/26 09:08:25;;;;;;;7.65;2.28;;;10.90;99.90;;;;;;7376640;32;20199;-64
2022/09/26 09:13:04;;;;;;;5.90;2.50;;;10.90;99.90;;;;;;7388877;32;20201;-64
2022/09/26 09:17:16;;;;;;;5.85;2.25;;;10.90;99.90;;;;;;7382399;32;20515;-64
2022/09/26 09:21:44;;;;;;;7.05;2.12;;;10.90;99.90;;;;;;7388237;32;20110;-65
2022/09/26 09:25:55;;;;;;;6.25;2.15;;;10.90;99.90;;;;;;7388527;32;20149;-63
2022/09/26 09:30:13;;;;;;;5.65;1.80;;;10.90;99.90;;;;;;7389667;32;20251;-64
2022/09/26 09:34:25;;;;;;;5.40;2.08;;;10.90;99.90;;;;;;7392843;31;20099;-64
2022/09/26 09:38:33;;;;;;;3.65;1.55;;;10.90;99.90;;;;;;7386679;32;20194;-63
2022/09/26 09:43:05;;;;;;;3.10;1.55;;;10.90;99.90;;;;;;7387294;32;20102;-65
2022/09/26 09:47:17;;;;;;;5.22;1.80;;;10.90;99.90;;;;;;7397019;32;20208;-63
2022/09/26 09:51:37;;;;;;;4.75;2.17;;;10.80;99.90;;;;;;7382712;32;20221;-63
2022/09/26 09:55:55;;;;;;;9.05;2.50;;;11.00;99.90;;;;;;7380618;32;20216;-64
2022/09/26 10:00:05;;;;;;;6.85;2.53;;;11.10;99.90;;;;;;7382689;32;20273;-64
2022/09/26 10:04:28;;;;;;;6.85;2.92;;;11.20;99.90;;;;;;7387686;32;20205;-63
2022/09/26 10:08:39;;;;;;;7.78;1.98;;;11.30;99.90;;;;;;7381102;32;20107;-63
2022/09/26 10:12:42;;;;;;;5.47;2.80;;;11.30;99.90;;;;;;7386748;31;20110;-64
2022/09/26 10:17:08;;;;;;;6.60;2.33;;;11.40;99.90;;;;;;7390732;32;20486;-65
2022/09/26 10:21:16;;;;;;;5.78;2.10;;;11.50;99.90;;;;;;7378621;32;20688;-63
2022/09/26 10:25:25;;;;;;;4.47;2.17;;;11.60;99.90;;;;;;7374719;32;20366;-63
2022/09/26 10:29:37;;;;;;;3.08;2.00;;;11.60;99.90;;;;;;7368381;32;20250;-65
2022/09/26 10:33:43;;;;;;;6.97;2.45;;;11.70;99.90;;;;;;7368920;32;20602;-65
2022/09/26 10:38:05;;;;;;;7.67;2.73;;;11.70;99.90;;;;;;7378803;31;20129;-63
2022/09/26 10:42:19;;;;;;;6.80;2.50;;;11.80;99.90;;;;;;7384784;32;20565;-62
2022/09/26 10:46:22;;;;;;;4.85;2.95;;;11.90;99.90;;;;;;7386941;31;20377;-63
2022/09/26 10:50:27;;;;;;;4.28;2.55;;;12.00;99.90;;;;;;7398066;32;20540;-63
2022/09/26 10:54:44;;;;;;;6.07;2.40;;;12.00;99.90;;;;;;7396981;32;20171;-64
2022/09/26 10:58:46;;;;;;;4.47;2.58;;;12.00;99.90;;;;;;7386126;32;20126;-62
2022/09/26 11:02:51;;;;;;;4.82;2.40;;;12.20;99.90;;;;;;7391195;32;20163;-62
2022/09/26 11:06:52;;;;;;;7.03;2.50;;;12.20;99.90;;;;;;7390351;32;20110;-63
2022/09/26 11:10:57;;;;;;;6.07;2.92;;;12.30;99.90;;;;;;7392969;32;20742;-63
2022/09/26 11:15:13;;;;;;;4.12;1.87;;;12.50;99.90;;;;;;7396297;32;20227;-63
2022/09/26 11:19:49;;;;;;;5.20;2.17;;;12.70;99.90;;;;;;7389136;32;20588;-63
2022/09/26 11:24:11;;;;;;;7.28;2.35;;;12.80;99.90;;;;;;7397031;32;20451;-63
2022/09/26 11:28:15;;;;;;;;;;;12.90;99.90;;;;;;7375520;32;20207;-65
2022/09/26 11:32:25;;;;;;;3.92;2.30;;;12.90;99.90;;;;;;7393961;32;20479;-63
2022/09/26 11:36:53;;;;;;;4.62;2.53;;;12.80;99.90;;;;;;7391014;32;20206;-63
2022/09/26 11:41:17;;;;;;;5.28;2.42;;;12.70;99.90;;;;;;7354821;32;22517;-63
2022/09/26 11:45:47;;;;;;;3.80;2.00;;;12.70;99.90;;;;;;7389307;32;20408;-65
2022/09/26 11:50:03;;;;;;;4.03;1.92;;;12.90;99.90;;;;;;7386683;32;20534;-65
2022/09/26 11:54:57;;;;;;;7.03;2.70;;;12.90;99.90;;;;;;7386767;32;20177;-64
2022/09/26 11:59:24;;;;;;;4.95;1.80;;;13.00;99.90;;;;;;7387334;32;20110;-63
2022/09/26 12:03:54;;;;;;;2.87;1.60;;;13.20;99.90;;;;;;7393160;32;20228;-64
2022/09/26 12:07:59;;;;;;;4.25;1.33;;;13.20;99.90;;;;;;7376659;32;20103;-63
2022/09/26 12:12:27;;;;;;;4.82;1.62;;;13.20;99.90;;;;;;7388374;32;20111;-65
2022/09/26 12:17:03;;;;;;;3.72;1.45;;;13.10;99.90;;;;;;7387496;32;20110;-64
2022/09/26 12:21:28;;;;;;;3.90;1.62;;;13.10;99.90;;;;;;7379354;32;20219;-63
2022/09/26 12:25:54;;;;;;;5.03;1.50;;;13.00;99.90;;;;;;7388578;32;20133;-65
2022/09/26 12:30:16;;;;;;;4.20;1.48;;;12.80;99.90;;;;;;7387655;32;20138;-65
2022/09/26 12:34:46;;;;;;;4.93;1.70;;;12.60;99.90;;;;;;7379255;32;20208;-64
2022/09/26 12:39:39;;;;;;;7.40;1.70;;;12.60;99.90;;;;;;7377297;32;20193;-64
2022/09/26 12:44:12;;;;;;;1.83;1.25;;;12.50;99.90;;;;;;7344625;32;20606;-67
2022/09/26 12:48:28;;;;;;;2.75;1.50;;;12.40;99.90;;;;;;7386926;32;20235;-63
2022/09/26 12:52:42;;;;;;;4.40;1.48;;;12.20;99.90;;;;;;7392164;32;20167;-63
2022/09/26 12:57:12;;;;;;;5.20;1.40;;;12.20;99.90;;;;;;7382202;32;20334;-63
2022/09/26 13:01:41;;;;;;;4.25;1.45;;;12.20;99.90;;;;;;7391960;32;20158;-63
2022/09/26 13:06:28;;;;;;;8.82;1.58;;;12.20;99.90;;;;;;7393132;32;20525;-66
2022/09/26 13:11:07;;;;;;;5.57;1.42;;;12.10;99.90;;;;;;7375274;32;20488;-64
2022/09/26 13:15:31;;;;;;;5.78;1.50;;;12.10;99.90;;;;;;7391314;32;20137;-63
2022/09/26 13:19:50;;;;;;;6.05;1.50;;;12.10;99.90;;;;;;7388598;32;20208;-64
2022/09/26 13:24:03;;;;;;;7.05;1.50;;;12.10;99.90;;;;;;7381600;32;20224;-64
2022/09/26 13:28:18;;;;;;;3.60;1.55;;;12.00;99.90;;;;;;7393985;32;20237;-64
2022/09/26 13:32:43;;;;;;;5.40;1.67;;;11.90;99.90;;;;;;7389859;32;20138;-63
2022/09/26 13:36:46;;;;;;;10.23;2.03;;;11.90;99.90;;;;;;7400320;32;20248;-63
2022/09/26 13:41:02;;;;;;;6.22;1.87;;;11.90;99.90;;;;;;7402747;32;20160;-64
2022/09/26 13:45:24;;;;;;;4.50;1.50;;;11.90;99.90;;;;;;7395470;32;20102;-64
2022/09/26 13:49:48;;;;;;;4.28;1.50;;;11.80;99.90;;;;;;7391712;32;20745;-63
2022/09/26 13:53:55;;;;;;;4.68;1.40;;;11.80;99.90;;;;;;7389648;32;20260;-65
2022/09/26 13:58:02;;;;;;;5.05;1.60;;;11.80;99.90;;;;;;7386075;32;20254;-65
2022/09/26 14:02:21;;;;;;;5.90;1.60;;;11.80;99.90;;;;;;7389371;32;20194;-65
2022/09/26 14:06:27;;;;;;;4.00;1.95;;;11.70;99.90;;;;;;7393451;31;20244;-65
2022/09/26 14:10:41;;;;;;;3.97;2.10;;;11.70;99.90;;;;;;7387582;32;20216;-66
2022/09/26 14:14:45;;;;;;;4.43;2.10;;;11.70;99.90;;;;;;7382898;32;21820;-64
2022/09/26 14:19:10;;;;;;;4.35;1.67;;;11.70;99.90;;;;;;7387584;32;20118;-65
2022/09/26 14:23:33;;;;;;;4.37;1.58;;;11.70;99.90;;;;;;7395982;32;20256;-66
2022/09/26 14:27:35;;;;;;;6.28;1.98;;;11.60;99.90;;;;;;7396748;32;20126;-64
2022/09/26 14:31:39;;;;;;;3.60;1.95;;;11.60;99.90;;;;;;7392692;32;20106;-66
2022/09/26 14:35:42;;;;;;;4.53;1.87;;;11.60;99.90;;;;;;7397152;32;20123;-64
2022/09/26 14:39:44;;;;;;;5.70;2.05;;;11.50;99.90;;;;;;7379364;32;20216;-65
2022/09/26 14:43:48;;;;;;;6.65;2.60;;;11.50;99.90;;;;;;7395353;32;20667;-65
2022/09/26 14:48:13;;;;;;;5.72;2.58;;;11.50;99.90;;;;;;7391048;32;20777;-64
2022/09/26 14:52:18;;;;;;;6.22;2.15;;;11.50;99.90;;;;;;7394420;32;20213;-65
2022/09/26 14:56:28;;;;;;;8.18;2.40;;;11.50;99.90;;;;;;7388845;32;20123;-66
2022/09/26 15:00:39;;;;;;;5.05;2.75;;;11.50;99.90;;;;;;7390250;31;20110;-66
2022/09/26 15:04:48;;;;;;;7.47;2.72;;;11.40;99.90;;;;;;7389815;32;20553;-65
2022/09/26 15:08:51;;;;;;;4.95;2.50;;;11.40;99.90;;;;;;7388654;32;20609;-65
2022/09/26 15:13:26;;;;;;;4.20;2.42;;;11.40;99.90;;;;;;7395304;32;20099;-66
2022/09/26 15:17:32;;;;;;;4.82;2.50;;;11.30;99.90;;;;;;7395276;32;20198;-66
2022/09/26 15:21:49;;;;;;;6.90;2.62;;;11.30;99.90;;;;;;7397348;32;20920;-66
2022/09/26 15:25:55;;;;;;;6.03;2.65;;;11.30;99.90;;;;;;7394449;32;20114;-66
2022/09/26 15:30:18;;;;;;;7.25;2.70;;;11.30;99.90;;;;;;7402010;32;20129;-66
2022/09/26 15:34:37;;;;;;;8.20;3.25;;;11.20;99.90;;;;;;7390615;32;20106;-67
2022/09/26 15:38:40;;;;;;;6.55;2.90;;;11.20;99.90;;;;;;7396425;32;20255;-67
2022/09/26 15:42:57;;;;;;;7.62;3.42;;;11.20;99.90;;;;;;7390961;32;20175;-66
2022/09/26 15:47:27;;;;;;;9.43;3.50;;;11.20;99.90;;;;;;7385259;32;20119;-66
2022/09/26 15:51:37;;;;;;;3.72;2.95;;;11.20;99.90;;;;;;7386015;32;20106;-66
2022/09/26 15:55:42;;;;;;;6.85;3.40;;;11.20;99.90;;;;;;7391586;32;20107;-67
2022/09/26 15:59:44;;;;;;;6.47;3.62;;;11.20;99.90;;;;;;7393814;32;20115;-67
2022/09/26 16:03:54;;;;;;;9.18;3.67;;;11.10;99.90;;;;;;7385203;32;20103;-66
2022/09/26 16:07:57;;;;;;;5.47;3.10;;;11.10;99.90;;;;;;7392806;32;20193;-66
2022/09/26 16:12:02;;;;;;;9.25;3.92;;;11.10;99.90;;;;;;7392542;32;20221;-68
2022/09/26 16:16:30;;;;;;;4.30;3.45;;;11.10;99.90;;;;;;7391319;32;20138;-62
2022/09/26 16:20:32;;;;;;;4.35;2.97;;;11.10;99.90;;;;;;7381399;32;20119;-68
2022/09/26 16:24:34;;;;;;;7.45;3.45;;;11.10;99.90;;;;;;7392916;32;20238;-66
2022/09/26 16:28:43;;;;;;;6.07;3.62;;;11.00;99.90;;;;;;7396277;32;20106;-67
2022/09/26 16:32:45;;;;;;;7.45;3.20;;;11.00;99.90;;;;;;7394776;32;20235;-66
2022/09/26 16:36:48;;;;;;;5.72;2.95;;;11.10;99.90;;;;;;7393279;32;20111;-66
2022/09/26 16:40:52;;;;;;;4.87;2.85;;;11.10;99.90;;;;;;7398000;32;20849;-67
2022/09/26 16:44:54;;;;;;;5.28;2.83;;;11.10;99.90;;;;;;7398541;32;20182;-67
2022/09/26 16:48:58;;;;;;;8.95;3.67;;;11.00;99.90;;;;;;7396531;32;20119;-66
2022/09/26 16:53:05;;;;;;;7.07;3.22;;;11.00;99.90;;;;;;7396645;32;20118;-66
2022/09/26 16:57:14;;;;;;;8.23;3.05;;;11.00;99.90;;;;;;7397535;32;20802;-68
2022/09/26 17:05:37;;;;;;;8.60;3.67;;;11.00;99.90;;;;;;7390537;32;20228;-62
2022/09/26 17:09:41;;;;;;;7.75;3.95;;;11.00;99.90;;;;;;7397650;32;20216;-65
2022/09/26 17:13:43;;;;;;;5.60;3.67;;;11.00;99.90;;;;;;7399395;32;20115;-64
2022/09/26 17:17:46;;;;;;;7.43;3.90;;;11.00;99.90;;;;;;7395802;32;20128;-65
2022/09/26 17:21:48;;;;;;;9.00;4.95;;;10.90;99.90;;;;;;7397035;31;20731;-62
2022/09/26 17:25:50;;;;;;;6.68;4.43;;;10.90;99.90;;;;;;7397875;32;20136;-61
2022/09/26 17:30:00;;;;;;;6.00;4.03;;;10.90;99.90;;;;;;7399239;31;20117;-61
2022/09/26 17:34:02;;;;;;;6.93;4.07;;;10.90;99.90;;;;;;7378454;32;20155;-62
2022/09/26 17:38:04;;;;;;;5.55;4.20;;;11.00;99.90;;;;;;7378563;32;20169;-63
2022/09/26 17:42:06;;;;;;;6.85;4.47;;;10.90;99.90;;;;;;7400339;32;20126;-62
2022/09/26 17:46:14;;;;;;;8.48;5.12;;;10.90;99.90;;;;;;7389054;32;20111;-61
2022/09/26 17:50:25;;;;;;;8.60;4.55;;;10.80;99.90;;;;;;7397380;32;20174;-64
2022/09/26 17:54:37;;;;;;;7.60;4.62;;;10.80;99.90;;;;;;7398099;32;20121;-62
2022/09/26 17:58:42;;;;;;;7.07;4.55;;;10.90;99.90;;;;;;7396979;32;20220;-63
2022/09/26 18:02:49;;;;;;;7.65;4.87;;;10.90;99.90;;;;;;7388643;32;20542;-62
2022/09/26 18:06:53;;;;;;;8.23;4.57;;;10.90;99.90;;;;;;7384524;32;20190;-63
2022/09/26 18:10:58;;;;;;;5.57;3.87;;;10.90;99.90;;;;;;7397441;32;20122;-60
2022/09/26 18:15:02;;;;;;;7.60;4.47;;;10.90;99.90;;;;;;7392800;32;20118;-62
2022/09/26 18:19:04;;;;;;;9.68;5.03;;;10.80;99.90;;;;;;7390798;32;20592;-63
2022/09/26 18:23:15;;;;;;;8.43;5.00;;;10.90;99.90;;;;;;7393259;32;20584;-65
2022/09/26 18:27:17;;;;;;;8.00;4.35;;;10.90;99.90;;;;;;7395483;32;20106;-63
2022/09/26 18:31:27;;;;;;;6.65;3.75;;;10.90;99.90;;;;;;7395041;32;20596;-66
2022/09/26 18:35:30;;;;;;;3.85;2.30;;;10.80;99.90;;;;;;7393908;31;20319;-65
2022/09/26 18:39:31;;;;;;;4.47;2.12;;;10.90;99.90;;;;;;7395861;31;20170;-64
2022/09/26 18:43:34;;;;;;;3.03;2.08;;;10.80;99.90;;;;;;7389926;32;20227;-64
2022/09/26 18:47:43;;;;;;;2.40;2.08;;;10.80;99.90;;;;;;7388419;31;20151;-64
2022/09/26 18:51:45;;;;;;;2.70;1.98;;;10.90;99.90;;;;;;7393145;32;20156;-66
2022/09/26 19:00:09;;;;;;;3.67;2.42;;;10.90;99.90;;;;;;7389918;32;20110;-62
2022/09/26 19:04:20;;;;;;;4.00;2.92;;;10.80;99.90;;;;;;7394053;32;20165;-62
2022/09/26 19:08:35;;;;;;;7.00;4.75;;;10.80;99.90;;;;;;7394425;32;20111;-64
2022/09/26 19:12:38;;;;;;;7.07;4.70;;;10.90;99.90;;;;;;7391811;32;20154;-63
2022/09/26 19:16:44;;;;;;;9.27;6.07;;;10.90;99.90;;;;;;7388762;31;20200;-63
2022/09/26 19:20:46;;;;;;;8.37;7.57;;;10.90;99.90;;;;;;7387687;32;20186;-64
2022/09/26 19:24:54;;;;;;;8.45;6.53;;;10.80;99.90;;;;;;7390756;32;20567;-63
2022/09/26 19:28:58;;;;;;;7.25;6.47;;;11.00;99.90;;;;;;7393752;32;20140;-62
2022/09/26 19:32:59;;;;;;;6.28;5.05;;;10.80;99.90;;;;;;7393497;32;20212;-62
2022/09/26 19:37:02;;;;;;;6.03;5.43;;;10.90;99.90;;;;;;7390064;32;20121;-63
2022/09/26 19:41:04;;;;;;;7.37;4.15;;;10.90;99.90;;;;;;7387323;32;20218;-63
2022/09/26 19:45:07;;;;;;;5.62;4.37;;;10.90;99.90;;;;;;7392020;32;20207;-62
2022/09/26 19:49:16;;;;;;;8.13;4.82;;;10.90;99.90;;;;;;7389593;32;20129;-65
2022/09/26 19:53:21;;;;;;;5.32;4.37;;;10.90;99.90;;;;;;7390571;32;20328;-63
2022/09/26 19:57:23;;;;;;;8.20;6.07;;;10.90;99.90;;;;;;7390497;32;20166;-61
2022/09/26 20:01:24;;;;;;;6.90;6.28;;;10.90;99.90;;;;;;7388683;32;20115;-64
2022/09/26 20:05:26;;;;;;;9.35;5.65;;;10.90;99.90;;;;;;7384752;32;20134;-61
2022/09/26 20:09:28;;;;;;;12.55;5.37;;;10.80;99.90;;;;;;7387213;32;20114;-63
2022/09/26 20:14:22;;;;;;;7.78;5.57;;;10.80;99.90;;;;;;7404462;32;20209;-65
2022/09/26 20:17:53;;;;;;;9.57;4.70;;;10.90;99.90;;;;;;7399378;32;20165;-64
2022/09/26 20:21:58;;;;;;;8.15;5.22;;;10.90;99.90;;;;;;7381174;32;20550;-65
2022/09/26 20:26:01;;;;;;;7.55;4.25;;;10.90;99.90;;;;;;7396973;31;20273;-63
2022/09/26 20:34:26;;;;;;;5.82;3.30;;;10.80;99.90;;;;;;7400926;32;20175;-63
2022/09/26 20:38:46;;;;;;;12.23;4.07;;;10.80;99.90;;;;;;7389709;32;20296;-63
2022/09/26 20:42:56;;;;;;;6.37;3.05;;;10.90;99.90;;;;;;7395260;32;20116;-61
2022/09/26 20:47:00;;;;;;;7.00;2.95;;;10.90;99.90;;;;;;7398383;32;20552;-62
2022/09/26 20:51:03;;;;;;;8.68;2.80;;;10.80;99.90;;;;;;7391269;32;20825;-61
2022/09/26 20:55:06;;;;;;;8.68;2.95;;;10.90;99.90;;;;;;7395540;32;20133;-59
2022/09/26 20:59:08;;;;;;;9.82;3.92;;;10.90;99.90;;;;;;7395462;32;20103;-60
2022/09/26 21:03:12;;;;;;;15.98;4.57;;;10.90;99.90;;;;;;7395290;32;20275;-60
2022/09/26 21:07:14;;;;;;;9.45;4.70;;;10.90;99.90;;;;;;7377222;32;20430;-60
2022/09/26 21:11:19;;;;;;;11.95;4.18;;;10.90;99.90;;;;;;7386531;32;20107;-59
2022/09/26 21:15:22;;;;;;;15.13;5.12;;;10.90;99.90;;;;;;7390509;32;20606;-60
2022/09/26 21:19:26;;;;;;;17.67;5.20;;;10.90;99.90;;;;;;7395798;31;20558;-59
2022/09/26 21:23:28;;;;;;;12.20;5.12;;;10.80;99.90;;;;;;7397276;32;20110;-60
2022/09/26 21:27:30;;;;;;;13.60;5.18;;;10.80;99.90;;;;;;7390306;32;20274;-60
2022/09/26 21:31:34;;;;;;;11.57;4.97;;;10.90;99.90;;;;;;7390168;32;20197;-63
2022/09/26 21:35:37;;;;;;;18.37;7.05;;;10.90;99.90;;;;;;7392162;32;20109;-61
2022/09/26 21:39:38;;;;;;;15.82;6.40;;;10.90;99.90;;;;;;7388097;32;20146;-59
2022/09/26 21:43:44;;;;;;;14.50;6.72;;;10.90;99.90;;;;;;7395546;32;20288;-59
2022/09/26 21:47:47;;;;;;;16.45;7.22;;;10.90;99.90;;;;;;7389231;32;20138;-59
2022/09/26 21:51:55;;;;;;;14.30;7.37;;;10.90;99.90;;;;;;7400189;32;20551;-63
2022/09/26 21:56:01;;;;;;;18.62;7.43;;;10.80;99.90;;;;;;7393610;32;20114;-61
2022/09/26 22:00:10;;;;;;;21.45;8.40;;;10.80;99.90;;;;;;7391330;32;20460;-60